Time;durP1;ratioP1;P1;durP2;ratioP2;P2;SDS_P1;SDS_P2;PMS_P1;PMS_P2;Temp;Humidity;BMP_temperature;BMP_pressure;BME280_temperature;BME280_humidity;BME280_pressure;Samples;Min_cycle;Max_cycle;Signal;HPM_P1;HPM_P2
2022/08/09 00:00:15;;;;;;;6.43;5.15;;;17.50;76.90;;;;;;2100034;28;20025;-73
2022/08/09 00:01:16;;;;;;;7.45;5.20;;;17.40;76.90;;;;;;2107455;28;20043;-73
2022/08/09 00:02:17;;;;;;;6.10;4.70;;;17.40;77.00;;;;;;2107038;28;20539;-73
2022/08/09 00:03:18;;;;;;;5.35;4.50;;;17.40;77.20;;;;;;2107705;28;20012;-73
2022/08/09 00:04:20;;;;;;;5.10;4.15;;;17.40;77.20;;;;;;2107828;28;20024;-73
2022/08/09 00:05:24;;;;;;;6.00;4.10;;;17.40;77.20;;;;;;2098710;28;20025;-73
2022/08/09 00:06:25;;;;;;;6.40;3.70;;;17.40;77.20;;;;;;2102555;28;20021;-73
2022/08/09 00:07:26;;;;;;;6.15;4.00;;;17.30;77.40;;;;;;2101527;28;20137;-74
2022/08/09 00:08:27;;;;;;;5.47;3.90;;;17.30;77.50;;;;;;2105750;28;20020;-73
2022/08/09 00:09:28;;;;;;;5.93;3.90;;;17.30;77.50;;;;;;2106757;28;20484;-72
2022/08/09 00:10:30;;;;;;;4.70;3.97;;;17.30;77.60;;;;;;2105970;28;20020;-73
2022/08/09 00:11:31;;;;;;;4.30;3.88;;;17.30;77.70;;;;;;2106842;28;20058;-73
2022/08/09 00:12:31;;;;;;;5.13;3.70;;;17.30;77.80;;;;;;2097311;28;20135;-73
2022/08/09 00:13:32;;;;;;;3.88;3.58;;;17.20;77.80;;;;;;2104225;28;20421;-75
2022/08/09 00:14:36;;;;;;;5.07;3.88;;;17.30;78.00;;;;;;2106779;28;20084;-72
2022/08/09 00:15:37;;;;;;;4.38;3.80;;;17.20;78.00;;;;;;2107044;28;20020;-72
2022/08/09 00:16:41;;;;;;;4.10;3.70;;;17.20;78.80;;;;;;2109104;28;20549;-74
2022/08/09 00:17:42;;;;;;;4.15;3.35;;;17.20;78.20;;;;;;2100205;28;20028;-72
2022/08/09 00:20:14;;;;;;;3.75;3.33;;;17.20;78.40;;;;;;2105353;28;20036;-72
2022/08/09 00:21:15;;;;;;;4.13;3.67;;;17.10;78.50;;;;;;2102546;28;20028;-72
2022/08/09 00:22:16;;;;;;;4.35;3.83;;;17.10;78.60;;;;;;2102896;28;20028;-73
2022/08/09 00:23:17;;;;;;;6.68;4.10;;;17.10;78.70;;;;;;2106919;28;20489;-74
2022/08/09 00:24:19;;;;;;;5.15;3.70;;;17.10;78.80;;;;;;2106664;28;20024;-74
2022/08/09 00:25:20;;;;;;;5.15;4.03;;;17.10;78.80;;;;;;2110872;28;20462;-73
2022/08/09 00:26:25;;;;;;;4.40;3.80;;;17.10;79.00;;;;;;2107078;28;20394;-73
2022/08/09 00:27:35;;;;;;;5.22;3.78;;;17.10;79.10;;;;;;2095334;28;20033;-74
2022/08/09 00:28:45;;;;;;;5.40;3.67;;;17.10;79.10;;;;;;2103423;28;20029;-74
2022/08/09 00:30:05;;;;;;;;;;;;;;;;;;;;;
2022/08/09 00:31:26;;;;;;;5.72;3.97;;;17.10;79.20;;;;;;2106660;28;20024;-74
2022/08/09 00:32:26;;;;;;;6.22;4.00;;;17.00;79.20;;;;;;2109262;28;20375;-73
2022/08/09 00:33:27;;;;;;;5.50;4.22;;;17.00;79.40;;;;;;2105900;28;20073;-75
2022/08/09 00:34:28;;;;;;;5.55;3.83;;;17.00;79.50;;;;;;2106134;28;20028;-72
2022/08/09 00:35:29;;;;;;;5.28;3.97;;;17.00;79.60;;;;;;2106089;28;20080;-73
2022/08/09 00:36:30;;;;;;;4.82;3.65;;;17.00;79.60;;;;;;2106303;28;20046;-75
2022/08/09 00:37:31;;;;;;;5.22;3.90;;;17.00;79.80;;;;;;2097778;28;20516;-73
2022/08/09 00:38:31;;;;;;;4.18;3.78;;;16.90;79.90;;;;;;2096605;28;20028;-74
2022/08/09 00:39:32;;;;;;;5.82;4.00;;;16.90;80.00;;;;;;2105931;28;20085;-74
2022/08/09 00:40:33;;;;;;;4.30;3.90;;;16.90;80.20;;;;;;2105963;28;20093;-74
2022/08/09 00:41:34;;;;;;;6.75;4.03;;;16.90;80.30;;;;;;2106156;28;20030;-74
2022/08/09 00:42:35;;;;;;;4.90;3.90;;;16.90;80.40;;;;;;2106765;28;20039;-74
2022/08/09 00:43:36;;;;;;;5.00;3.63;;;16.80;80.40;;;;;;2105162;28;20050;-74
2022/08/09 00:44:37;;;;;;;4.82;3.78;;;16.80;80.70;;;;;;2104855;28;20016;-74
2022/08/09 00:45:38;;;;;;;4.95;3.80;;;16.80;80.80;;;;;;2105358;28;20019;-74
2022/08/09 00:46:40;;;;;;;5.18;3.70;;;16.80;80.80;;;;;;2088646;28;20154;-73
2022/08/09 00:47:41;;;;;;;5.47;3.95;;;16.80;81.00;;;;;;2097090;28;20020;-74
2022/08/09 00:48:41;;;;;;;4.40;4.00;;;16.80;81.20;;;;;;2105165;28;20129;-74
2022/08/09 00:49:42;;;;;;;4.47;3.65;;;16.70;81.20;;;;;;2105317;28;20016;-75
2022/08/09 00:50:43;;;;;;;4.43;3.67;;;16.70;81.40;;;;;;2104842;28;20051;-74
2022/08/09 00:51:44;;;;;;;3.88;3.50;;;16.70;81.40;;;;;;2105030;28;20544;-74
2022/08/09 00:52:45;;;;;;;7.95;3.90;;;16.70;81.50;;;;;;2106106;28;20020;-74
2022/08/09 00:53:46;;;;;;;4.80;3.90;;;16.70;81.60;;;;;;2105730;28;20640;-73
2022/08/09 00:54:48;;;;;;;4.20;3.70;;;16.70;81.70;;;;;;2105347;28;20047;-74
2022/08/09 00:55:48;;;;;;;4.82;3.75;;;16.70;81.80;;;;;;2106015;28;20162;-73
2022/08/09 00:56:49;;;;;;;5.25;4.03;;;16.70;81.90;;;;;;2105730;28;20024;-74
2022/08/09 00:57:50;;;;;;;4.43;3.63;;;16.70;81.90;;;;;;2104685;28;20024;-74
2022/08/09 00:58:51;;;;;;;5.03;4.10;;;16.70;82.10;;;;;;2104431;28;20428;-73
2022/08/09 00:59:52;;;;;;;4.35;3.70;;;16.60;82.10;;;;;;2105772;28;20501;-74
2022/08/09 01:00:54;;;;;;;4.72;3.90;;;16.60;82.30;;;;;;2105393;28;20054;-74
2022/08/09 01:01:59;;;;;;;4.60;3.88;;;16.60;82.30;;;;;;2104872;28;20020;-74
2022/08/09 01:03:15;;;;;;;4.00;3.60;;;16.60;82.50;;;;;;2105222;28;20050;-74
2022/08/09 01:04:40;;;;;;;8.45;4.00;;;16.60;82.70;;;;;;2106951;28;20020;-74
2022/08/09 01:05:56;;;;;;;4.55;3.60;;;16.60;82.80;;;;;;2106845;28;20517;-74
2022/08/09 01:07:09;;;;;;;4.15;3.60;;;16.60;83.00;;;;;;2099067;28;20414;-74
2022/08/09 01:08:17;;;;;;;4.13;3.72;;;16.50;83.10;;;;;;2106477;28;20032;-73
2022/08/09 01:09:49;;;;;;;4.80;3.90;;;16.50;83.30;;;;;;2106735;28;20062;-74
2022/08/09 01:11:26;;;;;;;4.45;4.00;;;16.50;83.40;;;;;;2088917;28;20047;-74
2022/08/09 01:12:41;;;;;;;4.45;3.63;;;16.50;83.70;;;;;;2106777;28;20649;-74
2022/08/09 01:13:50;;;;;;;4.32;3.90;;;16.40;83.80;;;;;;2106901;28;20044;-74
2022/08/09 01:15:19;;;;;;;4.40;3.70;;;16.50;84.20;;;;;;2106142;28;20083;-71
2022/08/09 01:16:22;;;;;;;4.35;3.95;;;16.40;84.40;;;;;;2103863;28;20048;-74
2022/08/09 01:17:29;;;;;;;4.47;4.00;;;16.40;84.50;;;;;;2105599;28;20130;-73
2022/08/09 01:18:30;;;;;;;4.00;3.70;;;16.40;84.50;;;;;;2105649;28;20110;-73
2022/08/09 01:19:43;;;;;;;5.30;3.80;;;16.40;84.60;;;;;;2105749;28;20032;-74
2022/08/09 01:21:07;;;;;;;5.32;3.95;;;16.40;84.80;;;;;;2098958;28;20017;-74
2022/08/09 01:22:26;;;;;;;5.45;4.00;;;16.30;85.10;;;;;;2106129;28;20111;-73
2022/08/09 01:24:03;;;;;;;5.32;4.28;;;16.30;85.20;;;;;;2106481;28;20120;-74
2022/08/09 01:25:32;;;;;;;4.40;4.00;;;16.30;85.40;;;;;;2105470;28;20036;-73
2022/08/09 01:26:52;;;;;;;5.47;4.00;;;16.30;85.70;;;;;;2106094;28;20090;-73
2022/08/09 01:27:55;;;;;;;4.90;4.28;;;16.30;85.90;;;;;;2106209;28;20043;-74
2022/08/09 01:28:58;;;;;;;5.32;4.13;;;16.30;86.10;;;;;;2106225;28;20031;-74
2022/08/09 01:30:04;;;;;;;4.70;4.25;;;16.30;86.30;;;;;;2106390;28;20063;-73
2022/08/09 01:31:09;;;;;;;4.20;3.80;;;16.30;86.30;;;;;;2106450;28;20032;-73
2022/08/09 01:32:13;;;;;;;7.00;4.10;;;16.30;86.40;;;;;;2106349;28;20020;-73
2022/08/09 01:33:15;;;;;;;4.63;3.80;;;16.30;86.60;;;;;;2106196;28;20028;-74
2022/08/09 01:34:20;;;;;;;5.15;4.35;;;16.30;86.70;;;;;;2106475;28;20036;-74
2022/08/09 01:35:41;;;;;;;5.00;4.10;;;16.30;86.80;;;;;;2106239;28;20039;-72
2022/08/09 01:36:42;;;;;;;;;;;16.30;86.90;;;;;;2106992;28;20280;-74
2022/08/09 01:37:44;;;;;;;5.25;4.43;;;16.30;87.10;;;;;;2106330;28;20002;-74
2022/08/09 01:38:48;;;;;;;5.93;4.40;;;16.20;87.20;;;;;;2106140;28;20020;-74
2022/08/09 01:39:51;;;;;;;4.55;4.10;;;16.20;87.30;;;;;;2106498;28;20032;-73
2022/08/09 01:41:02;;;;;;;4.22;3.85;;;16.30;87.50;;;;;;2107406;28;20246;-72
2022/08/09 01:42:04;;;;;;;4.95;4.15;;;16.20;87.50;;;;;;2106168;28;20103;-74
2022/08/09 01:43:06;;;;;;;4.70;4.20;;;16.20;87.60;;;;;;2107695;28;20571;-71
2022/08/09 01:44:09;;;;;;;4.50;4.10;;;16.20;87.70;;;;;;2097042;28;20016;-71
2022/08/09 01:45:10;;;;;;;6.75;4.10;;;16.20;87.80;;;;;;2105244;28;20028;-71
2022/08/09 01:46:12;;;;;;;4.78;3.95;;;16.20;87.80;;;;;;2105357;28;20028;-72
2022/08/09 01:47:13;;;;;;;6.03;4.18;;;16.20;87.90;;;;;;2105633;28;20043;-71
2022/08/09 01:48:16;;;;;;;5.40;4.00;;;16.20;88.10;;;;;;2105975;28;20055;-72
2022/08/09 01:49:19;;;;;;;4.45;3.97;;;16.10;88.20;;;;;;2105710;28;20695;-73
2022/08/09 01:50:22;;;;;;;5.03;4.10;;;16.10;88.40;;;;;;2105613;28;20024;-72
2022/08/09 01:51:24;;;;;;;6.05;4.30;;;16.10;88.50;;;;;;2105454;28;20051;-72
2022/08/09 01:52:25;;;;;;;6.05;4.50;;;16.10;88.60;;;;;;2097291;28;20075;-72
2022/08/09 01:53:28;;;;;;;4.85;3.80;;;16.10;88.70;;;;;;2105874;28;20030;-72
2022/08/09 01:54:31;;;;;;;4.50;4.10;;;16.10;88.90;;;;;;2109885;28;20032;-72
2022/08/09 01:55:34;;;;;;;4.80;3.90;;;16.00;89.00;;;;;;2110069;28;20043;-73
2022/08/09 01:56:45;;;;;;;6.38;4.20;;;16.00;89.20;;;;;;2101412;28;20028;-73
2022/08/09 01:57:48;;;;;;;5.30;3.92;;;16.10;89.40;;;;;;2109033;28;20016;-72
2022/08/09 01:58:51;;;;;;;5.45;4.00;;;16.00;89.40;;;;;;2109045;28;20097;-73
2022/08/09 02:00:02;;;;;;;4.35;3.97;;;16.00;89.40;;;;;;2109824;28;20280;-73
2022/08/09 02:01:14;;;;;;;4.72;4.10;;;16.00;89.50;;;;;;2109621;28;20032;-73
2022/08/09 02:02:16;;;;;;;5.22;4.15;;;16.00;89.80;;;;;;2108143;28;20044;-72
2022/08/09 02:03:18;;;;;;;4.50;4.10;;;16.00;90.00;;;;;;2100178;28;20081;-72
2022/08/09 02:04:27;;;;;;;4.65;4.05;;;15.90;90.00;;;;;;2101271;28;20071;-73
2022/08/09 02:05:28;;;;;;;6.45;3.95;;;15.90;90.10;;;;;;2109226;28;20020;-73
2022/08/09 02:07:56;;;;;;;4.40;4.00;;;15.90;90.30;;;;;;2106516;28;20521;-72
2022/08/09 02:08:56;;;;;;;5.30;4.28;;;15.90;90.40;;;;;;2105866;28;20028;-73
2022/08/09 02:10:01;;;;;;;6.00;4.28;;;15.90;90.50;;;;;;2105542;28;20049;-72
2022/08/09 02:11:04;;;;;;;5.00;4.32;;;15.90;90.50;;;;;;2107178;28;20078;-73
2022/08/09 02:12:16;;;;;;;4.63;4.07;;;15.90;90.70;;;;;;2109524;28;20024;-72
2022/08/09 02:13:27;;;;;;;5.18;4.38;;;15.90;90.70;;;;;;2092133;28;20033;-72
2022/08/09 02:14:44;;;;;;;4.30;3.90;;;15.80;90.80;;;;;;2101585;28;20029;-73
2022/08/09 02:16:15;;;;;;;5.47;4.20;;;15.80;90.90;;;;;;2106108;28;20432;-73
2022/08/09 02:19:05;;;;;;;5.18;4.22;;;15.80;91.20;;;;;;2099067;28;20528;-73
2022/08/09 02:20:06;;;;;;;6.20;3.92;;;15.80;91.40;;;;;;2106042;28;20052;-72
2022/08/09 02:21:21;;;;;;;4.93;4.00;;;15.80;91.40;;;;;;2106629;28;20065;-73
2022/08/09 02:23:22;;;;;;;;;;;;;;;;;;;;;
2022/08/09 02:24:28;;;;;;;4.60;4.20;;;15.80;91.50;;;;;;2108186;28;20028;-71
2022/08/09 02:25:38;;;;;;;5.05;4.18;;;15.80;91.60;;;;;;2107678;28;20028;-73
2022/08/09 02:26:44;;;;;;;4.72;4.28;;;15.70;91.60;;;;;;2108803;28;20024;-72
2022/08/09 02:27:57;;;;;;;4.82;4.32;;;15.70;91.70;;;;;;2107934;28;20016;-72
2022/08/09 02:29:08;;;;;;;5.82;4.90;;;15.70;91.70;;;;;;2107529;28;20028;-73
2022/08/09 02:30:13;;;;;;;5.50;4.40;;;15.70;91.80;;;;;;2101780;28;20036;-72
2022/08/09 02:31:24;;;;;;;6.15;4.60;;;15.70;91.90;;;;;;2106470;28;20020;-73
2022/08/09 02:32:29;;;;;;;5.43;4.38;;;15.70;91.90;;;;;;2105519;28;20028;-72
2022/08/09 02:33:35;;;;;;;5.15;4.50;;;15.60;91.90;;;;;;2105392;28;20032;-73
2022/08/09 02:34:37;;;;;;;5.65;4.50;;;15.60;92.00;;;;;;2104905;28;20039;-73
2022/08/09 02:35:40;;;;;;;5.95;4.35;;;15.60;92.00;;;;;;2105355;28;20049;-73
2022/08/09 02:36:45;;;;;;;5.60;4.20;;;15.60;92.10;;;;;;2105200;28;20059;-73
2022/08/09 02:37:50;;;;;;;4.88;4.05;;;15.60;92.20;;;;;;2105212;28;20027;-73
2022/08/09 02:38:55;;;;;;;4.68;4.28;;;15.60;92.30;;;;;;2106058;28;20020;-73
2022/08/09 02:40:01;;;;;;;4.97;4.53;;;15.50;92.30;;;;;;2105370;28;20032;-73
2022/08/09 02:41:07;;;;;;;4.80;4.30;;;15.50;92.50;;;;;;2105418;28;20020;-73
2022/08/09 02:42:26;;;;;;;5.72;4.40;;;15.50;92.40;;;;;;2105820;28;20040;-72
2022/08/09 02:43:30;;;;;;;4.72;4.22;;;15.50;92.60;;;;;;2105050;28;20552;-73
2022/08/09 02:44:38;;;;;;;5.18;4.10;;;15.40;92.60;;;;;;2097953;28;20035;-73
2022/08/09 02:45:42;;;;;;;4.93;4.40;;;15.50;92.80;;;;;;2105486;28;20486;-72
2022/08/09 02:46:45;;;;;;;4.93;4.30;;;15.40;92.90;;;;;;2105811;28;20040;-72
2022/08/09 02:47:51;;;;;;;4.95;4.20;;;15.40;92.90;;;;;;2105979;28;20032;-72
2022/08/09 02:49:07;;;;;;;6.93;4.35;;;15.40;93.10;;;;;;2105046;28;20036;-72
2022/08/09 02:50:16;;;;;;;4.88;4.20;;;15.40;93.20;;;;;;2099032;28;20082;-73
2022/08/09 02:51:19;;;;;;;4.60;4.20;;;15.40;93.20;;;;;;2105834;28;20468;-72
2022/08/09 02:52:24;;;;;;;4.72;4.25;;;15.40;93.40;;;;;;2106670;28;20529;-71
2022/08/09 02:53:48;;;;;;;5.32;4.30;;;15.40;93.40;;;;;;2106216;28;20020;-73
2022/08/09 02:54:50;;;;;;;4.63;4.20;;;15.40;93.50;;;;;;2106116;28;20024;-73
2022/08/09 02:55:55;;;;;;;5.25;4.38;;;15.40;93.60;;;;;;2099090;28;20063;-73
2022/08/09 02:57:07;;;;;;;5.93;4.57;;;15.30;93.70;;;;;;2101102;28;20044;-72
2022/08/09 02:58:11;;;;;;;5.15;4.45;;;15.30;93.80;;;;;;2107785;28;20051;-73
2022/08/09 02:59:13;;;;;;;5.93;4.60;;;15.30;93.90;;;;;;2091082;28;20121;-73
2022/08/09 03:00:14;;;;;;;6.72;4.30;;;15.30;94.00;;;;;;2097228;28;20028;-72
2022/08/09 03:01:16;;;;;;;5.13;4.40;;;15.30;94.10;;;;;;2105737;28;20028;-72
2022/08/09 03:02:19;;;;;;;5.88;4.85;;;15.30;94.20;;;;;;2105114;28;20085;-72
2022/08/09 03:03:20;;;;;;;5.00;4.50;;;15.30;94.30;;;;;;2105136;28;20016;-73
2022/08/09 03:04:22;;;;;;;5.45;4.63;;;15.30;94.30;;;;;;2104891;28;20051;-72
2022/08/09 03:05:24;;;;;;;4.90;4.43;;;15.20;94.40;;;;;;2104728;28;20020;-73
2022/08/09 03:06:28;;;;;;;7.15;4.40;;;15.20;94.60;;;;;;2107947;28;20035;-73
2022/08/09 03:07:30;;;;;;;5.15;4.60;;;15.20;94.70;;;;;;2098773;28;20565;-74
2022/08/09 03:08:34;;;;;;;6.85;5.03;;;15.20;94.90;;;;;;2099374;28;20483;-74
2022/08/09 03:09:37;;;;;;;7.03;4.80;;;15.20;95.00;;;;;;2107426;28;20039;-74
2022/08/09 03:10:45;;;;;;;7.25;4.70;;;15.20;95.10;;;;;;2108352;28;20096;-74
2022/08/09 03:11:56;;;;;;;5.53;4.97;;;15.20;95.20;;;;;;2107433;28;20466;-73
2022/08/09 03:12:59;;;;;;;5.70;5.20;;;15.10;95.20;;;;;;2097881;28;20818;-75
2022/08/09 03:14:00;;;;;;;7.30;5.18;;;15.10;95.40;;;;;;2097221;28;20477;-74
2022/08/09 03:15:02;;;;;;;6.07;4.68;;;15.10;95.40;;;;;;2105258;28;20118;-74
2022/08/09 03:16:03;;;;;;;5.40;4.90;;;15.10;95.50;;;;;;2112862;28;20035;-75
2022/08/09 03:17:04;;;;;;;6.38;4.88;;;15.10;95.60;;;;;;2105705;28;20135;-73
2022/08/09 03:18:06;;;;;;;6.07;4.72;;;15.10;95.60;;;;;;2105692;28;20030;-73
2022/08/09 03:19:07;;;;;;;6.40;4.97;;;15.10;95.70;;;;;;2097356;28;20029;-74
2022/08/09 03:20:09;;;;;;;4.80;4.40;;;15.10;95.80;;;;;;2106188;28;20040;-73
2022/08/09 03:21:18;;;;;;;4.97;4.40;;;15.10;95.90;;;;;;2115522;28;20031;-73
2022/08/09 03:22:19;;;;;;;5.68;5.07;;;15.10;95.90;;;;;;2115454;28;20079;-74
2022/08/09 03:23:20;;;;;;;5.30;4.80;;;15.10;96.00;;;;;;2114534;28;20027;-74
2022/08/09 03:24:20;;;;;;;5.80;4.78;;;15.10;96.20;;;;;;2114553;28;20670;-74
2022/08/09 03:25:21;;;;;;;5.20;4.57;;;15.10;96.20;;;;;;2113449;28;20023;-74
2022/08/09 03:26:22;;;;;;;6.65;4.82;;;15.10;96.30;;;;;;2113209;28;20038;-73
2022/08/09 03:27:24;;;;;;;5.75;4.65;;;15.10;96.30;;;;;;2113808;28;20042;-73
2022/08/09 03:28:25;;;;;;;5.78;4.90;;;15.10;96.50;;;;;;2114433;28;20067;-73
2022/08/09 03:29:27;;;;;;;5.88;4.60;;;15.10;96.50;;;;;;2114519;28;20047;-74
2022/08/09 03:30:28;;;;;;;5.50;4.95;;;15.00;96.70;;;;;;2114368;28;20039;-74
2022/08/09 03:31:29;;;;;;;5.53;4.70;;;15.00;96.70;;;;;;2114175;28;20031;-73
2022/08/09 03:32:34;;;;;;;5.15;4.65;;;15.00;96.90;;;;;;2113278;28;20027;-73
2022/08/09 03:33:36;;;;;;;6.30;4.70;;;15.00;97.00;;;;;;2114134;28;20051;-73
2022/08/09 03:34:37;;;;;;;6.15;4.93;;;15.00;97.00;;;;;;2114456;28;20470;-73
2022/08/09 03:35:38;;;;;;;6.70;4.70;;;15.00;97.00;;;;;;2113749;28;20023;-73
2022/08/09 03:36:39;;;;;;;5.80;5.00;;;15.00;97.10;;;;;;2114013;28;20031;-73
2022/08/09 03:37:40;;;;;;;5.20;4.70;;;15.00;97.10;;;;;;2114605;28;20032;-74
2022/08/09 03:38:42;;;;;;;5.82;4.63;;;15.00;97.20;;;;;;2113887;28;20024;-73
2022/08/09 03:39:44;;;;;;;5.00;4.50;;;15.00;97.20;;;;;;2114274;28;20024;-73
2022/08/09 03:40:44;;;;;;;6.00;4.82;;;15.00;97.20;;;;;;2114430;28;20039;-73
2022/08/09 03:41:45;;;;;;;6.00;4.78;;;15.00;97.30;;;;;;2114284;28;20016;-73
2022/08/09 03:42:46;;;;;;;7.60;5.05;;;15.00;97.40;;;;;;2114076;28;20023;-73
2022/08/09 03:43:46;;;;;;;6.03;4.88;;;15.00;97.50;;;;;;2114032;28;20015;-73
2022/08/09 03:44:47;;;;;;;6.10;4.90;;;15.00;97.60;;;;;;2113655;28;20470;-74
2022/08/09 03:45:48;;;;;;;6.63;4.82;;;15.00;97.70;;;;;;2113998;28;20103;-75
2022/08/09 03:46:48;;;;;;;5.43;4.57;;;15.00;97.80;;;;;;2113338;28;20049;-73
2022/08/09 03:47:49;;;;;;;6.57;4.85;;;14.90;97.90;;;;;;2116107;28;20070;-74
2022/08/09 03:48:55;;;;;;;5.32;4.78;;;14.90;97.90;;;;;;2118011;28;20110;-73
2022/08/09 03:49:57;;;;;;;5.93;4.95;;;14.90;98.00;;;;;;2119827;28;20034;-74
2022/08/09 03:50:59;;;;;;;5.13;4.63;;;14.90;98.20;;;;;;2115636;28;20031;-75
2022/08/09 03:52:00;;;;;;;5.57;4.65;;;14.90;98.20;;;;;;2113937;28;20032;-73
2022/08/09 03:53:03;;;;;;;5.20;4.70;;;14.90;98.30;;;;;;2114200;28;20031;-74
2022/08/09 03:54:05;;;;;;;5.47;4.90;;;14.90;98.40;;;;;;2114148;28;20032;-73
2022/08/09 03:55:08;;;;;;;6.72;4.47;;;14.90;98.40;;;;;;2113534;28;20421;-74
2022/08/09 03:56:08;;;;;;;7.32;5.00;;;15.00;98.60;;;;;;2114180;28;20124;-73
2022/08/09 03:57:11;;;;;;;6.43;5.13;;;15.00;98.60;;;;;;2114145;28;20382;-72
2022/08/09 03:58:12;;;;;;;8.70;5.30;;;15.00;98.50;;;;;;2113585;28;20845;-73
2022/08/09 03:59:14;;;;;;;7.03;4.72;;;15.00;98.60;;;;;;2114453;28;20032;-74
2022/08/09 04:00:15;;;;;;;5.32;4.70;;;15.00;98.50;;;;;;2116766;28;20031;-73
2022/08/09 04:01:17;;;;;;;5.20;4.70;;;15.10;98.50;;;;;;2113971;28;20067;-73
2022/08/09 04:02:19;;;;;;;5.63;4.50;;;15.10;98.40;;;;;;2114089;28;20119;-74
2022/08/09 04:03:20;;;;;;;5.20;4.68;;;15.10;98.40;;;;;;2113892;28;20400;-73
2022/08/09 04:04:21;;;;;;;6.13;4.68;;;15.10;98.40;;;;;;2113804;28;20032;-73
2022/08/09 04:05:22;;;;;;;5.60;4.70;;;15.20;98.30;;;;;;2114250;28;20035;-73
2022/08/09 04:06:23;;;;;;;7.68;4.90;;;15.20;98.30;;;;;;2107741;28;20071;-73
2022/08/09 04:07:28;;;;;;;6.30;4.82;;;15.20;98.20;;;;;;2116320;28;20024;-73
2022/08/09 04:08:28;;;;;;;4.90;4.40;;;15.20;98.20;;;;;;2115907;28;20023;-72
2022/08/09 04:09:31;;;;;;;4.80;4.32;;;15.20;98.30;;;;;;2116242;28;20059;-73
2022/08/09 04:10:31;;;;;;;5.88;4.80;;;15.20;98.20;;;;;;2113341;28;20076;-73
2022/08/09 04:11:56;;;;;;;7.60;4.70;;;15.30;98.20;;;;;;2113491;28;20047;-73
2022/08/09 04:13:00;;;;;;;5.38;4.82;;;15.30;98.20;;;;;;2114605;28;20046;-73
2022/08/09 04:14:01;;;;;;;5.57;4.72;;;15.30;98.20;;;;;;2114100;28;20057;-73
2022/08/09 04:15:01;;;;;;;5.45;4.72;;;15.30;98.20;;;;;;2113470;28;20091;-73
2022/08/09 04:16:02;;;;;;;6.22;5.22;;;15.30;98.20;;;;;;2113723;28;20112;-73
2022/08/09 04:17:03;;;;;;;5.45;4.78;;;15.30;98.20;;;;;;2113767;28;20032;-73
2022/08/09 04:18:04;;;;;;;5.30;4.80;;;15.30;98.20;;;;;;2113764;28;20027;-74
2022/08/09 04:19:05;;;;;;;6.82;4.90;;;15.30;98.20;;;;;;2113629;28;20035;-74
2022/08/09 04:20:07;;;;;;;6.78;4.40;;;15.40;98.20;;;;;;2113723;28;20055;-73
2022/08/09 04:21:09;;;;;;;6.53;4.78;;;15.40;98.10;;;;;;2114447;28;20020;-73
2022/08/09 04:22:33;;;;;;;6.95;4.80;;;15.40;98.00;;;;;;2116871;28;20411;-73
2022/08/09 04:23:40;;;;;;;6.00;5.03;;;15.40;97.90;;;;;;2102775;28;20655;-73
2022/08/09 04:24:42;;;;;;;8.23;5.40;;;15.40;97.90;;;;;;2100598;28;20474;-73
2022/08/09 04:25:54;;;;;;;6.30;5.10;;;15.40;97.90;;;;;;2108105;28;20035;-74
2022/08/09 04:26:55;;;;;;;6.93;5.13;;;15.40;97.90;;;;;;2099407;28;20029;-73
2022/08/09 04:27:56;;;;;;;7.25;5.30;;;15.40;97.80;;;;;;2114213;28;20039;-73
2022/08/09 04:29:05;;;;;;;7.50;5.63;;;15.40;97.90;;;;;;2116217;28;20035;-73
2022/08/09 04:30:12;;;;;;;8.32;5.25;;;15.50;98.00;;;;;;2109975;28;20050;-74
2022/08/09 04:31:13;;;;;;;6.68;5.38;;;15.60;97.90;;;;;;2099053;28;20045;-73
2022/08/09 04:32:14;;;;;;;9.93;5.20;;;15.70;97.70;;;;;;2105499;28;20577;-74
2022/08/09 04:33:14;;;;;;;6.35;5.07;;;15.90;97.10;;;;;;2113612;28;20032;-74
2022/08/09 04:34:15;;;;;;;8.02;5.38;;;16.20;96.40;;;;;;2114022;28;20035;-74
2022/08/09 04:35:16;;;;;;;7.78;5.15;;;16.40;95.60;;;;;;2121994;28;20065;-74
2022/08/09 04:36:17;;;;;;;9.50;5.22;;;16.70;94.80;;;;;;2122460;28;20027;-74
2022/08/09 04:37:17;;;;;;;8.32;4.97;;;17.00;94.00;;;;;;2123621;28;20039;-73
2022/08/09 04:38:18;;;;;;;5.30;4.80;;;17.20;93.50;;;;;;2123459;28;20110;-75
2022/08/09 04:39:19;;;;;;;7.20;4.70;;;17.40;92.60;;;;;;2123648;28;20022;-73
2022/08/09 04:40:20;;;;;;;8.27;5.10;;;17.60;91.80;;;;;;2124130;28;20097;-73
2022/08/09 04:41:21;;;;;;;5.95;4.72;;;17.80;91.30;;;;;;2124299;28;20036;-73
2022/08/09 04:42:22;;;;;;;7.55;4.97;;;17.90;90.80;;;;;;2124342;28;20142;-73
2022/08/09 04:43:23;;;;;;;7.07;4.55;;;18.00;90.40;;;;;;2121615;28;20480;-74
2022/08/09 04:44:24;;;;;;;9.85;6.00;;;17.90;90.20;;;;;;2117321;28;20069;-74
2022/08/09 04:45:24;;;;;;;8.60;6.55;;;17.90;90.30;;;;;;2114258;28;20016;-73
2022/08/09 04:46:25;;;;;;;10.93;6.60;;;17.80;90.00;;;;;;2114656;28;20745;-73
2022/08/09 04:47:27;;;;;;;11.77;7.40;;;17.70;90.10;;;;;;2113137;28;20035;-74
2022/08/09 04:48:27;;;;;;;11.90;6.97;;;17.50;90.30;;;;;;2113221;28;20038;-74
2022/08/09 04:49:32;;;;;;;9.30;6.43;;;17.40;90.60;;;;;;2105110;28;20028;-73
2022/08/09 04:50:33;;;;;;;10.10;6.03;;;17.20;90.90;;;;;;2113291;28;20074;-74
2022/08/09 04:51:34;;;;;;;9.80;5.60;;;17.20;91.20;;;;;;2113762;28;20027;-74
2022/08/09 04:52:34;;;;;;;7.65;5.22;;;17.20;91.50;;;;;;2114040;28;20027;-74
2022/08/09 04:53:35;;;;;;;8.57;5.10;;;17.40;91.50;;;;;;2112926;28;20036;-74
2022/08/09 04:54:36;;;;;;;6.75;4.93;;;17.60;91.10;;;;;;2112862;28;20039;-73
2022/08/09 04:55:37;;;;;;;7.88;5.00;;;17.90;90.70;;;;;;2113675;28;20099;-74
2022/08/09 04:56:38;;;;;;;7.65;5.28;;;18.10;90.10;;;;;;2113677;28;20036;-74
2022/08/09 04:57:38;;;;;;;8.32;4.80;;;18.40;88.90;;;;;;2116786;28;20020;-73
2022/08/09 04:58:39;;;;;;;6.03;4.60;;;18.60;87.50;;;;;;2113305;28;20087;-74
2022/08/09 04:59:39;;;;;;;5.80;4.60;;;18.90;86.30;;;;;;2112802;28;20034;-74
2022/08/09 05:00:40;;;;;;;5.43;4.55;;;19.10;85.20;;;;;;2114131;28;20019;-75
2022/08/09 05:01:41;;;;;;;6.85;4.68;;;19.30;84.30;;;;;;2113116;28;20027;-74
2022/08/09 05:02:43;;;;;;;6.55;4.47;;;19.50;83.30;;;;;;2113176;28;20028;-74
2022/08/09 05:03:43;;;;;;;7.72;4.53;;;19.70;82.50;;;;;;2113638;28;20023;-74
2022/08/09 05:04:44;;;;;;;8.43;4.65;;;19.70;81.50;;;;;;2112566;28;20051;-73
2022/08/09 05:05:44;;;;;;;6.65;4.88;;;19.80;81.10;;;;;;2113019;28;20031;-74
2022/08/09 05:06:46;;;;;;;11.23;4.88;;;19.70;80.50;;;;;;2115621;28;20023;-74
2022/08/09 05:07:50;;;;;;;9.45;4.88;;;19.60;80.40;;;;;;2118249;28;20091;-75
2022/08/09 05:08:51;;;;;;;6.95;4.65;;;19.40;80.90;;;;;;2116131;28;20028;-74
2022/08/09 05:09:55;;;;;;;6.47;4.95;;;19.10;81.70;;;;;;2115774;28;20553;-74
2022/08/09 05:10:59;;;;;;;7.03;4.57;;;18.90;82.50;;;;;;2115228;28;20086;-73
2022/08/09 05:12:00;;;;;;;6.43;4.85;;;18.70;83.40;;;;;;2115347;28;20081;-73
2022/08/09 05:13:01;;;;;;;7.47;4.57;;;18.50;84.20;;;;;;2114673;28;20630;-73
2022/08/09 05:14:03;;;;;;;6.95;4.90;;;18.50;84.80;;;;;;2114456;28;20060;-73
2022/08/09 05:15:07;;;;;;;7.38;4.47;;;18.50;85.20;;;;;;2115142;28;20497;-74
2022/08/09 05:16:21;;;;;;;7.43;4.60;;;18.60;85.20;;;;;;2115391;28;20023;-73
2022/08/09 05:17:22;;;;;;;7.07;4.55;;;18.80;84.80;;;;;;2116208;28;20028;-74
2022/08/09 05:18:28;;;;;;;8.43;4.70;;;19.10;84.00;;;;;;2108993;28;20390;-73
2022/08/09 05:19:29;;;;;;;6.80;4.53;;;19.30;83.00;;;;;;2116909;28;20031;-74
2022/08/09 05:20:33;;;;;;;6.57;4.70;;;19.50;82.20;;;;;;2114943;28;20031;-74
2022/08/09 05:21:37;;;;;;;11.10;4.93;;;19.70;81.30;;;;;;2116256;28;20030;-73
2022/08/09 05:22:38;;;;;;;7.30;4.43;;;19.80;80.70;;;;;;2116415;28;20064;-74
2022/08/09 05:23:39;;;;;;;7.05;4.70;;;20.00;79.90;;;;;;2109171;28;20020;-75
2022/08/09 05:24:40;;;;;;;7.88;4.60;;;20.10;79.10;;;;;;2109647;28;20047;-74
2022/08/09 05:25:41;;;;;;;6.85;4.45;;;20.10;78.90;;;;;;2109492;28;20032;-74
2022/08/09 05:26:43;;;;;;;6.93;4.40;;;20.10;78.50;;;;;;2110789;28;20028;-74
2022/08/09 05:27:51;;;;;;;6.88;4.30;;;20.10;78.70;;;;;;2109615;28;20044;-75
2022/08/09 05:28:52;;;;;;;11.30;4.50;;;20.10;78.70;;;;;;2102859;28;20048;-75
2022/08/09 05:29:53;;;;;;;7.38;4.50;;;20.10;78.70;;;;;;2095117;28;20025;-75
2022/08/09 05:30:54;;;;;;;6.32;4.72;;;20.10;78.60;;;;;;2100681;28;20076;-73
2022/08/09 05:31:59;;;;;;;6.70;4.45;;;20.10;78.60;;;;;;2116842;28;20339;-72
2022/08/09 05:32:59;;;;;;;6.32;4.50;;;20.10;78.40;;;;;;2118164;28;20091;-74
2022/08/09 05:34:04;;;;;;;9.77;5.05;;;20.00;78.40;;;;;;2118946;28;20551;-73
2022/08/09 05:35:05;;;;;;;7.00;4.75;;;19.90;78.30;;;;;;2110802;28;20040;-73
2022/08/09 05:36:09;;;;;;;4.90;4.40;;;19.90;78.40;;;;;;2109891;28;20039;-74
2022/08/09 05:37:10;;;;;;;6.47;4.50;;;19.80;78.30;;;;;;2116825;28;20517;-73
2022/08/09 05:38:11;;;;;;;7.90;4.50;;;19.70;78.40;;;;;;2116617;28;20030;-74
2022/08/09 05:39:12;;;;;;;5.80;4.50;;;19.60;78.70;;;;;;2117489;28;20032;-73
2022/08/09 05:40:13;;;;;;;6.97;4.60;;;19.60;79.20;;;;;;2108620;28;20035;-72